Laman API Video Percuma Terbaik

AVDBAPI.COM

Cari katalog, semak rekod, dan salin URL API bersih daripada papan pemuka pantas.

Telegram Join Our Telegram Community for Updates!
Today
30
Kemaskini Hari Ini
Censored
314171
Censored Videos
Total
474382
Total Videos

Senarai Video

Rekod terkini disusun mengikut masa kemas kini.

ID Nama CODE Kategori Dikemaskini API
265481 H4610-KI220315 Gadis 19 Tahun Kitami Yuina H4610-KI220315 Tanpa sensor 2025-08-29 05:25:10 API
265480 010221-01 Miss Deriheru, cosplayer arnab Tahun Baru yang popular, malah memberikan anda blowjob pembersihan yang hebat 010221-01 Tanpa sensor 2025-08-29 05:25:00 API
265479 H0930-KI210822 Asami Kobayashi Wanita Cantik Berusia 30 Tahun H0930-KI210822 Tanpa sensor 2025-08-29 05:24:50 API
265478 112015-428 Merci Beaucoup 10 Kali Creampie Berturut 112015-428 Tanpa sensor 2025-08-29 05:24:40 API
265476 HEYZO-2561 Ona Rimaku dan Guchogucho! Melancap dan Mengentot dengan Gadis Nakal Vol.19 HEYZO-2561 Tanpa sensor 2025-08-29 05:24:20 API
265475 FC2-PPV-4491034 fc2-ppv-4491034 FC2-PPV-4491034 Tanpa sensor 2025-08-29 05:24:10 API
265474 C0930-KI210302 Midori Kimishima, 23 tahun C0930-KI210302 Tanpa sensor 2025-08-29 05:24:00 API
265473 061620-317 Mangsa wanita matang yang ghairah ialah seorang lelaki mabuk 061620-317 Tanpa sensor 2025-08-29 05:23:50 API
265472 011620_961 Budak JK Comel Gila Batang - Nak Mengenyot Serta 011620_961 Tanpa sensor 2025-08-29 05:23:40 API
265471 072821-001 Koleksi Terbaik Momoka Ogawa 072821-001 Tanpa sensor 2025-08-29 05:23:30 API
265470 H-220315 Ki220315 Yuina Kitami Gadis 19 Tahun H-220315 Tanpa sensor 2025-08-29 05:23:20 API
265469 010321-01 Pilihan Pussy Berharga - Sila Lihat Pussy Shoko - 010321-01 Tanpa sensor 2025-08-29 05:23:10 API
265468 H0930-TK0040 Akisue Mana Berusia 30 Tahun H0930-TK0040 Tanpa sensor 2025-08-29 05:23:00 API
265467 061820-318 Wanita Matang Tanpa Solekan ~ Wanita matang tanpa mekap sangat menggoda ... ~ 061820-318 Tanpa sensor 2025-08-29 05:22:50 API
265466 HEYZO-2566 Saya cuba merosakkan gadis amatur yang kata "Saya tak boleh tunjuk muka" Vol.2 HEYZO-2566 Tanpa sensor 2025-08-29 05:22:40 API
265465 C0930-KI210304 Kazumi Okamoto Gadis Hot 26 Tahun C0930-KI210304 Tanpa sensor 2025-08-29 05:22:30 API
265464 FC2-PPV-4491204 [Filem popular Y-chan] Seks dengan Y-chan, kali pertama selepas setengah tahun FC2-PPV-4491204 Tanpa sensor 2025-08-29 05:22:20 API
265463 073021-001 Pelacur Cantik Yang Menjilat & Mengisap Zakar Dengan Nikmat ~ Miyuki Sakura 073021-001 Tanpa sensor 2025-08-29 05:22:10 API
265461 H4610-KI220317 Miki Arima Umur 18 Tahun H4610-KI220317 Tanpa sensor 2025-08-29 05:21:50 API
265460 120415-438 Catwalk Poison 136 [Bekas Model Eksklusif Majalah Fesyen] 120415-438 Tanpa sensor 2025-08-29 05:21:40 API
265459 010421-01 Koleksi Puki Berharga - Sila Lihat Puki Shoko - 010421-01 Tanpa sensor 2025-08-29 05:21:30 API
265458 H0930-KI210821 Ciri Masturbasi Sambil Mengambil Gambar Selfie H0930-KI210821 Tanpa sensor 2025-08-29 05:21:20 API
265457 062020-319 Telan Mani Isteri Orang 110 ~ Isteri Berdada Besar Yang Ketagih Batang ~ 062020-319 Tanpa sensor 2025-08-29 05:21:10 API
265456 HEYZO-2570 Saya pancut dalam faraj Miss Soap pada hari pertama dia bekerja! HEYZO-2570 Tanpa sensor 2025-08-29 05:21:00 API
265454 011820_962 Pancutan Ekstrem Ke Atas Maki Koizumi 011820_962 Tanpa sensor 2025-08-29 05:20:40 API
265453 H-220317 Miki Arima Gadis 18 Tahun H-220317 Tanpa sensor 2025-08-29 05:20:30 API
265452 C0930-TK0029 Ruka Umaji, 28 tahun C0930-TK0029 Tanpa sensor 2025-08-29 05:20:20 API
265451 073121-001 Anri Tachibana, wanita yang penuh dengan feromon menggoda 073121-001 Tanpa sensor 2025-08-29 05:20:10 API
265450 SE208 SEX SPORTS SE208 Tanpa sensor 2025-08-29 05:20:00 API
265449 010521-01 Dahulu sejak zaman sekolah menengah, saya sangat mendambakan permainan ikatan seperti dalam buku erotik 010521-01 Tanpa sensor 2025-08-29 05:19:50 API
265448 HEYZO-2567 Ciuman Tangan Menggoda Mari Koizumi HEYZO-2567 Tanpa sensor 2025-08-29 05:19:40 API
265447 KB1528 Team Kimura Edisi Khas - KB1528 Tanpa sensor 2025-08-29 05:19:30 API
265446 H0930-KI210824 Takako Sanada 29 tahun H0930-KI210824 Tanpa sensor 2025-08-29 05:19:20 API
265445 FC2-PPV-4485839 Edisi Ke-6: Teknik Pantas Membuatnya Basah dan Keluar Tanpa Henti [Versi Luar Negara] FC2-PPV-4485839 Tanpa sensor 2025-08-29 05:19:10 API
265444 062320-320 Buku Gambar Khemak Isteri Orang Edisi Deluxe 062320-320 Tanpa sensor 2025-08-29 05:19:00 API
265443 H4610-KI220319 Ciri Kencing Padu H4610-KI220319 Tanpa sensor 2025-08-29 05:18:50 API
265442 080321-001 Kerja Setiausaha Presiden Vol.11 Haruka Aizawa 080321-001 Tanpa sensor 2025-08-29 05:18:40 API
265441 C0930-KI210306 Gadis 20 Tahun Dengan Fetish Kencing C0930-KI210306 Tanpa sensor 2025-08-29 05:18:30 API
265440 CARIBBEANCOMPR-121715 Koleksi Panas 113 CARIBBEANCOMPR-121715_449 Tanpa sensor 2025-08-29 05:18:20 API
265439 H0930-KI210826 Aki Sato, Wanita Seksi Berusia 30 Tahun H0930-KI210826 Tanpa sensor 2025-08-29 05:18:10 API
265438 012120_963 Selamat Datang ke Soap Mewah Bersama Riri Shiramori dan Rino Sakuragi 012120_963 Tanpa sensor 2025-08-29 05:18:00 API
265437 010621-01 Koleksi Puki Pilihan - Sila Lihat Puki Yuri - 010621-01 Tanpa sensor 2025-08-29 05:17:50 API
265436 PP015 Malaikat Terjatuh Gonzo No.015 Natsumi PP015 Tanpa sensor 2025-08-29 05:17:40 API
265435 HEYZO-2588 Berjaya rakam video luar biasa.. Seorang cuckold pulang ke rumah, berjumpa suami, dan dengar isteri buat blowjob di bilik sebelah HEYZO-2588 Tanpa sensor 2025-08-29 05:17:30 API
265434 080421-001 Tidak Diterbitkan ~ Blowjob sehingga zakar jadi gila ~ HITOMI Yumi Kamiya 080421-001 Tanpa sensor 2025-08-29 05:17:20 API
265433 C0930-KI210307 Wanita Seksi 26 Tahun Yukiko Mototo C0930-KI210307 Tanpa sensor 2025-08-29 05:17:10 API
265432 H4610-KI220320 Yuiko Matsui 26 tahun H4610-KI220320 Tanpa sensor 2025-08-29 05:17:00 API
265431 062520-321 Ibu Tempatan Yang Bekerja 062520-321 Tanpa sensor 2025-08-29 05:16:50 API
265430 H0930-KI210829 Wanita Seksi 36 Tahun Megumi Yasukawa H0930-KI210829 Tanpa sensor 2025-08-29 05:16:40 API
265429 HEYZO-2568 Tunggang dengan padu wanita matang cantik yang sensitif! Vol.2 HEYZO-2568 Tanpa sensor 2025-08-29 05:16:30 API
SE208 SEX SPORTS
ID: 265450
SE208
Kategori: Tanpa sensor
Dikemaskini: 2025-08-29 05:20:00
API